sensor_id;sensor_type;location;lat;lon;timestamp;P1;durP1;ratioP1;P2;durP2;ratioP2
23898;SDS011;20544;50.018;20.010;2022-12-05T00:02:57;47.35;;;28.75;;
23898;SDS011;20544;50.018;20.010;2022-12-05T00:09:31;42.75;;;27.30;;
23898;SDS011;20544;50.018;20.010;2022-12-05T00:12:49;41.75;;;26.70;;
23898;SDS011;20544;50.018;20.010;2022-12-05T00:16:07;41.30;;;26.40;;
23898;SDS011;20544;50.018;20.010;2022-12-05T00:19:26;45.28;;;27.50;;
23898;SDS011;20544;50.018;20.010;2022-12-05T00:26:00;44.03;;;27.10;;
23898;SDS011;20544;50.018;20.010;2022-12-05T00:29:17;42.63;;;27.03;;
23898;SDS011;20544;50.018;20.010;2022-12-05T00:32:34;44.55;;;27.40;;
23898;SDS011;20544;50.018;20.010;2022-12-05T00:35:50;43.30;;;27.83;;
23898;SDS011;20544;50.018;20.010;2022-12-05T00:39:07;40.20;;;25.78;;
23898;SDS011;20544;50.018;20.010;2022-12-05T00:42:25;41.48;;;25.35;;
23898;SDS011;20544;50.018;20.010;2022-12-05T00:45:41;40.83;;;25.70;;
23898;SDS011;20544;50.018;20.010;2022-12-05T00:48:58;37.93;;;25.00;;
23898;SDS011;20544;50.018;20.010;2022-12-05T00:52:17;43.38;;;26.73;;
23898;SDS011;20544;50.018;20.010;2022-12-05T00:55:36;36.98;;;24.53;;
23898;SDS011;20544;50.018;20.010;2022-12-05T01:02:09;37.18;;;23.13;;
23898;SDS011;20544;50.018;20.010;2022-12-05T01:05:25;34.40;;;22.28;;
23898;SDS011;20544;50.018;20.010;2022-12-05T01:10:19;31.40;;;21.63;;
23898;SDS011;20544;50.018;20.010;2022-12-05T01:13:35;31.40;;;21.25;;
23898;SDS011;20544;50.018;20.010;2022-12-05T01:16:53;31.65;;;20.78;;
23898;SDS011;20544;50.018;20.010;2022-12-05T01:20:10;30.10;;;19.45;;
23898;SDS011;20544;50.018;20.010;2022-12-05T01:26:42;31.35;;;20.28;;
23898;SDS011;20544;50.018;20.010;2022-12-05T01:29:59;33.48;;;21.73;;
23898;SDS011;20544;50.018;20.010;2022-12-05T01:33:16;33.10;;;21.55;;
23898;SDS011;20544;50.018;20.010;2022-12-05T01:36:33;34.00;;;21.38;;
23898;SDS011;20544;50.018;20.010;2022-12-05T01:39:49;33.38;;;20.80;;
23898;SDS011;20544;50.018;20.010;2022-12-05T01:43:08;33.03;;;21.23;;
23898;SDS011;20544;50.018;20.010;2022-12-05T01:46:31;31.40;;;20.28;;
23898;SDS011;20544;50.018;20.010;2022-12-05T01:49:50;34.28;;;21.55;;
23898;SDS011;20544;50.018;20.010;2022-12-05T01:53:06;33.33;;;21.88;;
23898;SDS011;20544;50.018;20.010;2022-12-05T01:56:23;35.48;;;22.10;;
23898;SDS011;20544;50.018;20.010;2022-12-05T01:59:40;33.73;;;22.00;;
23898;SDS011;20544;50.018;20.010;2022-12-05T02:03:07;37.55;;;23.43;;
23898;SDS011;20544;50.018;20.010;2022-12-05T02:09:39;30.98;;;19.88;;
23898;SDS011;20544;50.018;20.010;2022-12-05T02:12:55;31.95;;;20.08;;
23898;SDS011;20544;50.018;20.010;2022-12-05T02:16:19;37.13;;;22.50;;
23898;SDS011;20544;50.018;20.010;2022-12-05T02:26:57;33.00;;;21.83;;
23898;SDS011;20544;50.018;20.010;2022-12-05T02:30:23;35.73;;;22.25;;
23898;SDS011;20544;50.018;20.010;2022-12-05T02:33:43;38.70;;;22.93;;
23898;SDS011;20544;50.018;20.010;2022-12-05T02:40:20;36.15;;;21.83;;
23898;SDS011;20544;50.018;20.010;2022-12-05T02:43:40;33.98;;;21.65;;
23898;SDS011;20544;50.018;20.010;2022-12-05T02:47:03;36.13;;;22.25;;
23898;SDS011;20544;50.018;20.010;2022-12-05T02:50:24;34.13;;;21.33;;
23898;SDS011;20544;50.018;20.010;2022-12-05T02:56:59;34.58;;;21.83;;
23898;SDS011;20544;50.018;20.010;2022-12-05T03:00:17;32.23;;;20.52;;
23898;SDS011;20544;50.018;20.010;2022-12-05T03:03:34;33.85;;;21.40;;
23898;SDS011;20544;50.018;20.010;2022-12-05T03:06:51;33.28;;;21.58;;
23898;SDS011;20544;50.018;20.010;2022-12-05T03:10:12;32.20;;;21.03;;
23898;SDS011;20544;50.018;20.010;2022-12-05T03:13:33;31.80;;;21.08;;
23898;SDS011;20544;50.018;20.010;2022-12-05T03:16:54;36.55;;;22.63;;
23898;SDS011;20544;50.018;20.010;2022-12-05T03:20:18;30.70;;;19.85;;
23898;SDS011;20544;50.018;20.010;2022-12-05T03:23:37;31.03;;;19.55;;
23898;SDS011;20544;50.018;20.010;2022-12-05T03:26:58;31.15;;;19.50;;
23898;SDS011;20544;50.018;20.010;2022-12-05T03:30:18;32.58;;;21.15;;
23898;SDS011;20544;50.018;20.010;2022-12-05T03:33:38;33.03;;;19.97;;
23898;SDS011;20544;50.018;20.010;2022-12-05T03:40:14;35.25;;;20.93;;
23898;SDS011;20544;50.018;20.010;2022-12-05T03:43:39;34.15;;;21.18;;
23898;SDS011;20544;50.018;20.010;2022-12-05T03:47:02;35.00;;;21.98;;
23898;SDS011;20544;50.018;20.010;2022-12-05T03:50:22;31.30;;;20.23;;
23898;SDS011;20544;50.018;20.010;2022-12-05T03:56:57;30.78;;;19.53;;
23898;SDS011;20544;50.018;20.010;2022-12-05T04:03:35;31.18;;;20.38;;
23898;SDS011;20544;50.018;20.010;2022-12-05T04:06:57;32.43;;;20.30;;
23898;SDS011;20544;50.018;20.010;2022-12-05T04:10:19;32.63;;;21.05;;
23898;SDS011;20544;50.018;20.010;2022-12-05T04:13:42;30.43;;;19.75;;
23898;SDS011;20544;50.018;20.010;2022-12-05T04:17:02;29.95;;;20.05;;
23898;SDS011;20544;50.018;20.010;2022-12-05T04:20:23;30.83;;;19.93;;
23898;SDS011;20544;50.018;20.010;2022-12-05T04:23:57;30.35;;;19.68;;
23898;SDS011;20544;50.018;20.010;2022-12-05T04:27:28;30.98;;;20.18;;
23898;SDS011;20544;50.018;20.010;2022-12-05T04:30:52;29.88;;;19.98;;
23898;SDS011;20544;50.018;20.010;2022-12-05T04:34:14;32.45;;;19.93;;
23898;SDS011;20544;50.018;20.010;2022-12-05T04:40:48;32.93;;;19.68;;
23898;SDS011;20544;50.018;20.010;2022-12-05T04:44:09;31.45;;;20.03;;
23898;SDS011;20544;50.018;20.010;2022-12-05T04:50:46;31.68;;;20.52;;
23898;SDS011;20544;50.018;20.010;2022-12-05T04:57:23;33.68;;;21.03;;
23898;SDS011;20544;50.018;20.010;2022-12-05T05:00:43;32.95;;;20.58;;
23898;SDS011;20544;50.018;20.010;2022-12-05T05:04:06;34.03;;;20.45;;
23898;SDS011;20544;50.018;20.010;2022-12-05T05:07:26;33.65;;;21.77;;
23898;SDS011;20544;50.018;20.010;2022-12-05T05:10:43;36.90;;;21.60;;
23898;SDS011;20544;50.018;20.010;2022-12-05T05:14:05;36.08;;;21.90;;
23898;SDS011;20544;50.018;20.010;2022-12-05T05:17:21;35.73;;;22.75;;
23898;SDS011;20544;50.018;20.010;2022-12-05T05:20:37;37.55;;;23.02;;
23898;SDS011;20544;50.018;20.010;2022-12-05T05:23:54;44.43;;;23.15;;
23898;SDS011;20544;50.018;20.010;2022-12-05T05:27:11;56.18;;;22.68;;
23898;SDS011;20544;50.018;20.010;2022-12-05T05:30:27;40.30;;;23.88;;
23898;SDS011;20544;50.018;20.010;2022-12-05T05:33:46;40.88;;;22.95;;
23898;SDS011;20544;50.018;20.010;2022-12-05T05:37:03;43.85;;;25.28;;
23898;SDS011;20544;50.018;20.010;2022-12-05T05:40:19;42.35;;;23.65;;
23898;SDS011;20544;50.018;20.010;2022-12-05T05:43:36;45.58;;;25.63;;
23898;SDS011;20544;50.018;20.010;2022-12-05T05:46:54;42.33;;;25.33;;
23898;SDS011;20544;50.018;20.010;2022-12-05T05:50:10;41.88;;;25.35;;
23898;SDS011;20544;50.018;20.010;2022-12-05T05:53:27;43.78;;;24.95;;
23898;SDS011;20544;50.018;20.010;2022-12-05T05:56:43;41.98;;;23.63;;
23898;SDS011;20544;50.018;20.010;2022-12-05T06:00:00;42.30;;;24.35;;
23898;SDS011;20544;50.018;20.010;2022-12-05T06:03:19;48.00;;;26.43;;
23898;SDS011;20544;50.018;20.010;2022-12-05T06:06:35;45.98;;;26.73;;
23898;SDS011;20544;50.018;20.010;2022-12-05T06:09:52;43.45;;;24.58;;
23898;SDS011;20544;50.018;20.010;2022-12-05T06:13:08;45.63;;;25.68;;
23898;SDS011;20544;50.018;20.010;2022-12-05T06:16:24;45.60;;;27.50;;
23898;SDS011;20544;50.018;20.010;2022-12-05T06:19:42;52.38;;;27.70;;
23898;SDS011;20544;50.018;20.010;2022-12-05T06:26:14;54.10;;;32.28;;
23898;SDS011;20544;50.018;20.010;2022-12-05T06:29:33;48.83;;;27.70;;
23898;SDS011;20544;50.018;20.010;2022-12-05T06:32:50;47.08;;;27.28;;
23898;SDS011;20544;50.018;20.010;2022-12-05T06:36:08;46.10;;;27.50;;
23898;SDS011;20544;50.018;20.010;2022-12-05T06:42:43;49.55;;;27.00;;
23898;SDS011;20544;50.018;20.010;2022-12-05T06:45:59;54.68;;;27.33;;
23898;SDS011;20544;50.018;20.010;2022-12-05T06:49:19;45.73;;;26.38;;
23898;SDS011;20544;50.018;20.010;2022-12-05T06:55:56;47.38;;;27.20;;
23898;SDS011;20544;50.018;20.010;2022-12-05T07:02:29;47.68;;;27.53;;
23898;SDS011;20544;50.018;20.010;2022-12-05T07:05:48;49.68;;;27.68;;
23898;SDS011;20544;50.018;20.010;2022-12-05T07:12:21;47.75;;;27.78;;
23898;SDS011;20544;50.018;20.010;2022-12-05T07:15:37;44.98;;;26.88;;
23898;SDS011;20544;50.018;20.010;2022-12-05T07:18:53;44.95;;;27.10;;
23898;SDS011;20544;50.018;20.010;2022-12-05T07:22:10;44.40;;;26.13;;
23898;SDS011;20544;50.018;20.010;2022-12-05T07:26:40;46.38;;;28.48;;
23898;SDS011;20544;50.018;20.010;2022-12-05T07:29:58;44.83;;;26.83;;
23898;SDS011;20544;50.018;20.010;2022-12-05T07:33:15;47.18;;;28.10;;
23898;SDS011;20544;50.018;20.010;2022-12-05T07:36:31;47.38;;;26.95;;
23898;SDS011;20544;50.018;20.010;2022-12-05T07:43:03;45.90;;;26.73;;
23898;SDS011;20544;50.018;20.010;2022-12-05T07:46:19;49.28;;;27.93;;
23898;SDS011;20544;50.018;20.010;2022-12-05T07:49:37;50.05;;;26.80;;
23898;SDS011;20544;50.018;20.010;2022-12-05T07:56:10;48.65;;;26.63;;
23898;SDS011;20544;50.018;20.010;2022-12-05T07:59:28;49.28;;;27.28;;
23898;SDS011;20544;50.018;20.010;2022-12-05T08:02:45;47.25;;;26.43;;
23898;SDS011;20544;50.018;20.010;2022-12-05T08:06:02;48.33;;;27.20;;
23898;SDS011;20544;50.018;20.010;2022-12-05T08:12:36;48.88;;;27.70;;
23898;SDS011;20544;50.018;20.010;2022-12-05T08:15:52;49.70;;;27.98;;
23898;SDS011;20544;50.018;20.010;2022-12-05T08:19:13;51.35;;;27.80;;
23898;SDS011;20544;50.018;20.010;2022-12-05T08:22:29;49.18;;;28.70;;
23898;SDS011;20544;50.018;20.010;2022-12-05T08:29:02;51.18;;;28.18;;
23898;SDS011;20544;50.018;20.010;2022-12-05T08:32:21;49.78;;;26.83;;
23898;SDS011;20544;50.018;20.010;2022-12-05T08:35:38;44.55;;;26.78;;
23898;SDS011;20544;50.018;20.010;2022-12-05T08:38:56;53.90;;;30.40;;
23898;SDS011;20544;50.018;20.010;2022-12-05T08:42:15;48.95;;;26.88;;
23898;SDS011;20544;50.018;20.010;2022-12-05T08:45:31;48.25;;;27.23;;
23898;SDS011;20544;50.018;20.010;2022-12-05T08:48:50;50.80;;;29.33;;
23898;SDS011;20544;50.018;20.010;2022-12-05T08:52:09;54.28;;;28.75;;
23898;SDS011;20544;50.018;20.010;2022-12-05T08:55:28;50.95;;;28.55;;
23898;SDS011;20544;50.018;20.010;2022-12-05T08:58:47;49.25;;;29.00;;
23898;SDS011;20544;50.018;20.010;2022-12-05T09:02:05;47.73;;;28.53;;
23898;SDS011;20544;50.018;20.010;2022-12-05T09:05:23;42.88;;;25.60;;
23898;SDS011;20544;50.018;20.010;2022-12-05T09:11:55;46.95;;;27.13;;
23898;SDS011;20544;50.018;20.010;2022-12-05T09:15:11;43.05;;;25.53;;
23898;SDS011;20544;50.018;20.010;2022-12-05T09:18:28;42.90;;;25.58;;
23898;SDS011;20544;50.018;20.010;2022-12-05T09:21:44;45.60;;;27.38;;
23898;SDS011;20544;50.018;20.010;2022-12-05T09:25:01;42.98;;;25.90;;
23898;SDS011;20544;50.018;20.010;2022-12-05T09:28:19;40.55;;;24.98;;
23898;SDS011;20544;50.018;20.010;2022-12-05T09:31:35;43.68;;;26.13;;
23898;SDS011;20544;50.018;20.010;2022-12-05T09:34:53;42.93;;;26.23;;
23898;SDS011;20544;50.018;20.010;2022-12-05T09:38:10;44.73;;;26.60;;
23898;SDS011;20544;50.018;20.010;2022-12-05T09:41:33;44.08;;;25.58;;
23898;SDS011;20544;50.018;20.010;2022-12-05T09:45:20;38.03;;;23.80;;
23898;SDS011;20544;50.018;20.010;2022-12-05T09:48:39;48.68;;;26.65;;
23898;SDS011;20544;50.018;20.010;2022-12-05T09:51:56;42.95;;;25.58;;
23898;SDS011;20544;50.018;20.010;2022-12-05T09:55:14;40.28;;;25.00;;
23898;SDS011;20544;50.018;20.010;2022-12-05T09:58:39;76.78;;;46.28;;
23898;SDS011;20544;50.018;20.010;2022-12-05T10:02:01;62.30;;;36.38;;
23898;SDS011;20544;50.018;20.010;2022-12-05T10:05:40;47.05;;;28.70;;
23898;SDS011;20544;50.018;20.010;2022-12-05T10:12:33;41.03;;;26.90;;
23898;SDS011;20544;50.018;20.010;2022-12-05T10:16:07;42.48;;;26.68;;
23898;SDS011;20544;50.018;20.010;2022-12-05T10:19:29;46.85;;;28.08;;
23898;SDS011;20544;50.018;20.010;2022-12-05T10:22:51;45.60;;;29.33;;
23898;SDS011;20544;50.018;20.010;2022-12-05T10:26:10;45.45;;;26.63;;
23898;SDS011;20544;50.018;20.010;2022-12-05T10:29:30;42.28;;;27.00;;
23898;SDS011;20544;50.018;20.010;2022-12-05T10:32:53;38.10;;;25.85;;
23898;SDS011;20544;50.018;20.010;2022-12-05T10:36:14;39.20;;;25.45;;
23898;SDS011;20544;50.018;20.010;2022-12-05T10:42:47;43.68;;;28.68;;
23898;SDS011;20544;50.018;20.010;2022-12-05T10:46:04;44.60;;;29.30;;
23898;SDS011;20544;50.018;20.010;2022-12-05T10:49:30;122.83;;;72.85;;
23898;SDS011;20544;50.018;20.010;2022-12-05T10:53:02;63.25;;;37.15;;
23898;SDS011;20544;50.018;20.010;2022-12-05T10:56:40;40.83;;;26.73;;
23898;SDS011;20544;50.018;20.010;2022-12-05T11:00:08;40.00;;;25.70;;
23898;SDS011;20544;50.018;20.010;2022-12-05T11:03:28;40.20;;;26.05;;
23898;SDS011;20544;50.018;20.010;2022-12-05T11:06:51;36.70;;;24.65;;
23898;SDS011;20544;50.018;20.010;2022-12-05T11:10:19;34.08;;;22.93;;
23898;SDS011;20544;50.018;20.010;2022-12-05T11:13:42;36.28;;;23.63;;
23898;SDS011;20544;50.018;20.010;2022-12-05T11:17:09;35.65;;;23.53;;
23898;SDS011;20544;50.018;20.010;2022-12-05T11:20:36;34.50;;;22.93;;
23898;SDS011;20544;50.018;20.010;2022-12-05T11:27:23;33.30;;;23.15;;
23898;SDS011;20544;50.018;20.010;2022-12-05T11:30:46;34.30;;;23.40;;
23898;SDS011;20544;50.018;20.010;2022-12-05T11:34:13;38.90;;;25.38;;
23898;SDS011;20544;50.018;20.010;2022-12-05T11:37:46;45.48;;;29.50;;
23898;SDS011;20544;50.018;20.010;2022-12-05T11:41:08;38.65;;;24.70;;
23898;SDS011;20544;50.018;20.010;2022-12-05T11:44:43;34.43;;;23.25;;
23898;SDS011;20544;50.018;20.010;2022-12-05T11:48:21;36.15;;;23.45;;
23898;SDS011;20544;50.018;20.010;2022-12-05T11:55:12;32.90;;;22.70;;
23898;SDS011;20544;50.018;20.010;2022-12-05T12:02:34;33.23;;;22.43;;
23898;SDS011;20544;50.018;20.010;2022-12-05T12:06:26;32.38;;;22.05;;
23898;SDS011;20544;50.018;20.010;2022-12-05T12:13:06;34.88;;;22.35;;
23898;SDS011;20544;50.018;20.010;2022-12-05T12:16:34;33.63;;;22.88;;
23898;SDS011;20544;50.018;20.010;2022-12-05T12:23:55;29.63;;;21.25;;
23898;SDS011;20544;50.018;20.010;2022-12-05T12:27:51;30.85;;;21.58;;
23898;SDS011;20544;50.018;20.010;2022-12-05T12:31:27;33.68;;;23.05;;
23898;SDS011;20544;50.018;20.010;2022-12-05T12:38:56;27.97;;;19.83;;
23898;SDS011;20544;50.018;20.010;2022-12-05T12:42:58;29.88;;;21.30;;
23898;SDS011;20544;50.018;20.010;2022-12-05T12:46:23;32.20;;;21.35;;
23898;SDS011;20544;50.018;20.010;2022-12-05T12:49:51;30.63;;;21.73;;
23898;SDS011;20544;50.018;20.010;2022-12-05T12:53:26;35.20;;;22.53;;
23898;SDS011;20544;50.018;20.010;2022-12-05T12:57:04;28.45;;;20.13;;
23898;SDS011;20544;50.018;20.010;2022-12-05T13:00:30;32.23;;;22.43;;
23898;SDS011;20544;50.018;20.010;2022-12-05T13:03:57;34.88;;;22.80;;
23898;SDS011;20544;50.018;20.010;2022-12-05T13:07:22;38.15;;;27.00;;
23898;SDS011;20544;50.018;20.010;2022-12-05T13:10:44;38.60;;;25.53;;
23898;SDS011;20544;50.018;20.010;2022-12-05T13:14:03;29.87;;;20.23;;
23898;SDS011;20544;50.018;20.010;2022-12-05T13:17:25;27.93;;;20.40;;
23898;SDS011;20544;50.018;20.010;2022-12-05T13:20:44;31.53;;;20.28;;
23898;SDS011;20544;50.018;20.010;2022-12-05T13:24:04;25.88;;;19.53;;
23898;SDS011;20544;50.018;20.010;2022-12-05T13:27:40;24.75;;;19.58;;
23898;SDS011;20544;50.018;20.010;2022-12-05T13:31:09;26.40;;;19.98;;
23898;SDS011;20544;50.018;20.010;2022-12-05T13:34:36;30.35;;;21.13;;
23898;SDS011;20544;50.018;20.010;2022-12-05T13:37:58;27.35;;;20.33;;
23898;SDS011;20544;50.018;20.010;2022-12-05T13:41:43;26.10;;;18.63;;
23898;SDS011;20544;50.018;20.010;2022-12-05T13:48:27;30.03;;;19.40;;
23898;SDS011;20544;50.018;20.010;2022-12-05T13:51:51;28.10;;;19.65;;
23898;SDS011;20544;50.018;20.010;2022-12-05T14:02:09;25.70;;;18.93;;
23898;SDS011;20544;50.018;20.010;2022-12-05T14:05:57;24.63;;;17.88;;
23898;SDS011;20544;50.018;20.010;2022-12-05T14:09:28;22.75;;;17.30;;
23898;SDS011;20544;50.018;20.010;2022-12-05T14:18:15;25.63;;;18.50;;
23898;SDS011;20544;50.018;20.010;2022-12-05T14:21:38;25.73;;;17.85;;
23898;SDS011;20544;50.018;20.010;2022-12-05T14:28:33;28.53;;;20.45;;
23898;SDS011;20544;50.018;20.010;2022-12-05T14:32:04;29.00;;;19.68;;
23898;SDS011;20544;50.018;20.010;2022-12-05T14:35:39;24.03;;;18.35;;
23898;SDS011;20544;50.018;20.010;2022-12-05T14:38:59;28.85;;;19.25;;
23898;SDS011;20544;50.018;20.010;2022-12-05T14:45:56;26.83;;;20.13;;
23898;SDS011;20544;50.018;20.010;2022-12-05T14:49:35;27.93;;;20.70;;
23898;SDS011;20544;50.018;20.010;2022-12-05T14:53:26;26.75;;;19.75;;
23898;SDS011;20544;50.018;20.010;2022-12-05T14:56:58;28.05;;;18.50;;
23898;SDS011;20544;50.018;20.010;2022-12-05T15:00:23;26.75;;;19.78;;
23898;SDS011;20544;50.018;20.010;2022-12-05T15:03:57;28.38;;;19.78;;
23898;SDS011;20544;50.018;20.010;2022-12-05T15:07:41;30.75;;;21.33;;
23898;SDS011;20544;50.018;20.010;2022-12-05T15:14:17;30.68;;;21.38;;
23898;SDS011;20544;50.018;20.010;2022-12-05T15:17:40;29.38;;;22.15;;
23898;SDS011;20544;50.018;20.010;2022-12-05T15:21:18;31.83;;;22.08;;
23898;SDS011;20544;50.018;20.010;2022-12-05T15:24:40;28.00;;;20.70;;
23898;SDS011;20544;50.018;20.010;2022-12-05T15:31:14;29.53;;;19.95;;
23898;SDS011;20544;50.018;20.010;2022-12-05T15:34:38;30.03;;;21.77;;
23898;SDS011;20544;50.018;20.010;2022-12-05T15:38:13;27.30;;;20.50;;
23898;SDS011;20544;50.018;20.010;2022-12-05T15:44:51;30.50;;;20.55;;
23898;SDS011;20544;50.018;20.010;2022-12-05T15:48:32;38.50;;;21.43;;
23898;SDS011;20544;50.018;20.010;2022-12-05T15:54:49;29.48;;;20.88;;
23898;SDS011;20544;50.018;20.010;2022-12-05T15:58:11;29.00;;;19.98;;
23898;SDS011;20544;50.018;20.010;2022-12-05T16:01:37;31.68;;;21.93;;
23898;SDS011;20544;50.018;20.010;2022-12-05T16:05:14;32.08;;;22.43;;
23898;SDS011;20544;50.018;20.010;2022-12-05T16:08:38;32.13;;;22.20;;
23898;SDS011;20544;50.018;20.010;2022-12-05T16:12:22;34.40;;;22.50;;
23898;SDS011;20544;50.018;20.010;2022-12-05T16:15:43;69.40;;;44.00;;
23898;SDS011;20544;50.018;20.010;2022-12-05T16:19:05;39.70;;;26.85;;
23898;SDS011;20544;50.018;20.010;2022-12-05T16:22:29;45.63;;;31.00;;
23898;SDS011;20544;50.018;20.010;2022-12-05T16:25:45;48.30;;;32.85;;
23898;SDS011;20544;50.018;20.010;2022-12-05T16:29:03;55.33;;;35.28;;
23898;SDS011;20544;50.018;20.010;2022-12-05T16:35:39;58.93;;;37.03;;
23898;SDS011;20544;50.018;20.010;2022-12-05T16:39:02;60.30;;;39.63;;
23898;SDS011;20544;50.018;20.010;2022-12-05T16:42:28;65.15;;;40.60;;
23898;SDS011;20544;50.018;20.010;2022-12-05T16:45:46;63.93;;;41.70;;
23898;SDS011;20544;50.018;20.010;2022-12-05T16:49:18;60.47;;;39.27;;
23898;SDS011;20544;50.018;20.010;2022-12-05T16:52:46;69.38;;;45.23;;
23898;SDS011;20544;50.018;20.010;2022-12-05T16:56:04;71.30;;;46.45;;
23898;SDS011;20544;50.018;20.010;2022-12-05T16:59:28;71.28;;;46.50;;
23898;SDS011;20544;50.018;20.010;2022-12-05T17:02:53;68.25;;;45.18;;
23898;SDS011;20544;50.018;20.010;2022-12-05T17:06:11;131.33;;;75.93;;
23898;SDS011;20544;50.018;20.010;2022-12-05T17:09:31;84.23;;;52.93;;
23898;SDS011;20544;50.018;20.010;2022-12-05T17:12:48;79.28;;;49.43;;
23898;SDS011;20544;50.018;20.010;2022-12-05T17:16:09;70.38;;;46.03;;
23898;SDS011;20544;50.018;20.010;2022-12-05T17:19:30;66.90;;;45.70;;
23898;SDS011;20544;50.018;20.010;2022-12-05T17:22:47;74.35;;;46.83;;
23898;SDS011;20544;50.018;20.010;2022-12-05T17:26:05;68.38;;;46.15;;
23898;SDS011;20544;50.018;20.010;2022-12-05T17:29:29;71.73;;;46.43;;
23898;SDS011;20544;50.018;20.010;2022-12-05T17:32:45;74.75;;;48.65;;
23898;SDS011;20544;50.018;20.010;2022-12-05T17:36:02;70.40;;;45.18;;
23898;SDS011;20544;50.018;20.010;2022-12-05T17:39:24;75.10;;;47.88;;
23898;SDS011;20544;50.018;20.010;2022-12-05T17:42:41;72.33;;;46.10;;
23898;SDS011;20544;50.018;20.010;2022-12-05T17:45:59;72.75;;;47.78;;
23898;SDS011;20544;50.018;20.010;2022-12-05T17:49:17;77.60;;;47.23;;
23898;SDS011;20544;50.018;20.010;2022-12-05T17:52:33;70.15;;;46.43;;
23898;SDS011;20544;50.018;20.010;2022-12-05T17:55:52;70.93;;;47.13;;
23898;SDS011;20544;50.018;20.010;2022-12-05T17:59:09;71.30;;;46.15;;
23898;SDS011;20544;50.018;20.010;2022-12-05T18:05:41;69.28;;;46.85;;
23898;SDS011;20544;50.018;20.010;2022-12-05T18:09:06;72.75;;;47.80;;
23898;SDS011;20544;50.018;20.010;2022-12-05T18:12:36;84.50;;;53.55;;
23898;SDS011;20544;50.018;20.010;2022-12-05T18:15:56;81.45;;;53.28;;
23898;SDS011;20544;50.018;20.010;2022-12-05T18:19:14;75.93;;;48.78;;
23898;SDS011;20544;50.018;20.010;2022-12-05T18:22:31;74.58;;;49.08;;
23898;SDS011;20544;50.018;20.010;2022-12-05T18:25:56;74.43;;;47.78;;
23898;SDS011;20544;50.018;20.010;2022-12-05T18:29:16;72.25;;;47.15;;
23898;SDS011;20544;50.018;20.010;2022-12-05T18:32:36;75.18;;;48.93;;
23898;SDS011;20544;50.018;20.010;2022-12-05T18:35:52;70.80;;;46.35;;
23898;SDS011;20544;50.018;20.010;2022-12-05T18:39:10;76.70;;;49.00;;
23898;SDS011;20544;50.018;20.010;2022-12-05T18:42:30;70.90;;;47.23;;
23898;SDS011;20544;50.018;20.010;2022-12-05T18:45:54;67.80;;;44.80;;
23898;SDS011;20544;50.018;20.010;2022-12-05T18:49:13;72.93;;;46.95;;
23898;SDS011;20544;50.018;20.010;2022-12-05T18:52:30;76.75;;;47.73;;
23898;SDS011;20544;50.018;20.010;2022-12-05T18:55:47;69.60;;;45.23;;
23898;SDS011;20544;50.018;20.010;2022-12-05T18:59:12;74.60;;;48.20;;
23898;SDS011;20544;50.018;20.010;2022-12-05T19:02:33;74.43;;;47.65;;
23898;SDS011;20544;50.018;20.010;2022-12-05T19:05:50;72.28;;;46.90;;
23898;SDS011;20544;50.018;20.010;2022-12-05T19:09:08;70.95;;;46.88;;
23898;SDS011;20544;50.018;20.010;2022-12-05T19:12:27;73.30;;;47.68;;
23898;SDS011;20544;50.018;20.010;2022-12-05T19:15:44;73.08;;;47.73;;
23898;SDS011;20544;50.018;20.010;2022-12-05T19:19:02;74.33;;;48.90;;
23898;SDS011;20544;50.018;20.010;2022-12-05T19:22:21;78.75;;;48.85;;
23898;SDS011;20544;50.018;20.010;2022-12-05T19:25:37;79.50;;;50.28;;
23898;SDS011;20544;50.018;20.010;2022-12-05T19:28:54;76.75;;;49.80;;
23898;SDS011;20544;50.018;20.010;2022-12-05T19:32:14;77.43;;;49.38;;
23898;SDS011;20544;50.018;20.010;2022-12-05T19:35:33;76.25;;;49.13;;
23898;SDS011;20544;50.018;20.010;2022-12-05T19:38:51;80.78;;;50.80;;
23898;SDS011;20544;50.018;20.010;2022-12-05T19:42:10;83.48;;;52.10;;
23898;SDS011;20544;50.018;20.010;2022-12-05T19:45:26;78.78;;;51.25;;
23898;SDS011;20544;50.018;20.010;2022-12-05T19:48:43;77.48;;;50.08;;
23898;SDS011;20544;50.018;20.010;2022-12-05T19:52:00;79.88;;;49.68;;
23898;SDS011;20544;50.018;20.010;2022-12-05T19:55:17;86.28;;;55.13;;
23898;SDS011;20544;50.018;20.010;2022-12-05T19:58:34;79.45;;;51.68;;
23898;SDS011;20544;50.018;20.010;2022-12-05T20:01:51;78.50;;;50.33;;
23898;SDS011;20544;50.018;20.010;2022-12-05T20:05:11;79.75;;;50.88;;
23898;SDS011;20544;50.018;20.010;2022-12-05T20:08:39;77.10;;;49.75;;
23898;SDS011;20544;50.018;20.010;2022-12-05T20:11:57;76.38;;;50.25;;
23898;SDS011;20544;50.018;20.010;2022-12-05T20:15:14;78.70;;;51.55;;
23898;SDS011;20544;50.018;20.010;2022-12-05T20:18:31;81.18;;;51.80;;
23898;SDS011;20544;50.018;20.010;2022-12-05T20:21:48;81.58;;;52.43;;
23898;SDS011;20544;50.018;20.010;2022-12-05T20:25:05;77.23;;;49.48;;
23898;SDS011;20544;50.018;20.010;2022-12-05T20:28:22;79.05;;;50.83;;
23898;SDS011;20544;50.018;20.010;2022-12-05T20:31:41;75.63;;;50.15;;
23898;SDS011;20544;50.018;20.010;2022-12-05T20:34:58;76.70;;;49.98;;
23898;SDS011;20544;50.018;20.010;2022-12-05T20:38:14;75.58;;;50.40;;
23898;SDS011;20544;50.018;20.010;2022-12-05T20:41:31;79.88;;;52.98;;
23898;SDS011;20544;50.018;20.010;2022-12-05T20:44:48;79.28;;;51.45;;
23898;SDS011;20544;50.018;20.010;2022-12-05T20:48:07;78.50;;;52.48;;
23898;SDS011;20544;50.018;20.010;2022-12-05T20:51:24;80.83;;;51.80;;
23898;SDS011;20544;50.018;20.010;2022-12-05T20:54:42;81.40;;;53.40;;
23898;SDS011;20544;50.018;20.010;2022-12-05T20:57:58;84.28;;;55.20;;
23898;SDS011;20544;50.018;20.010;2022-12-05T21:01:16;83.88;;;54.90;;
23898;SDS011;20544;50.018;20.010;2022-12-05T21:04:35;86.80;;;54.15;;
23898;SDS011;20544;50.018;20.010;2022-12-05T21:07:53;90.48;;;57.33;;
23898;SDS011;20544;50.018;20.010;2022-12-05T21:11:11;85.13;;;55.33;;
23898;SDS011;20544;50.018;20.010;2022-12-05T21:14:40;89.38;;;56.13;;
23898;SDS011;20544;50.018;20.010;2022-12-05T21:17:58;95.65;;;63.80;;
23898;SDS011;20544;50.018;20.010;2022-12-05T21:21:15;89.38;;;57.30;;
23898;SDS011;20544;50.018;20.010;2022-12-05T21:27:49;87.43;;;55.18;;
23898;SDS011;20544;50.018;20.010;2022-12-05T21:31:07;86.88;;;56.90;;
23898;SDS011;20544;50.018;20.010;2022-12-05T21:34:27;86.88;;;56.68;;
23898;SDS011;20544;50.018;20.010;2022-12-05T21:37:43;86.95;;;57.80;;
23898;SDS011;20544;50.018;20.010;2022-12-05T21:41:00;89.70;;;60.00;;
23898;SDS011;20544;50.018;20.010;2022-12-05T21:44:17;93.42;;;58.38;;
23898;SDS011;20544;50.018;20.010;2022-12-05T21:47:34;90.85;;;58.08;;
23898;SDS011;20544;50.018;20.010;2022-12-05T21:50:51;90.53;;;57.35;;
23898;SDS011;20544;50.018;20.010;2022-12-05T21:54:08;96.13;;;59.23;;
23898;SDS011;20544;50.018;20.010;2022-12-05T22:00:45;88.58;;;56.05;;
23898;SDS011;20544;50.018;20.010;2022-12-05T22:04:01;89.65;;;57.78;;